sensor_id;sensor_type;location;lat;lon;timestamp;P1;durP1;ratioP1;P2;durP2;ratioP2
4986;SDS011;12674;51.500;7.552;2023-07-13T00:01:29;8.02;;;2.40;;
4986;SDS011;12674;51.500;7.552;2023-07-13T00:03:32;10.90;;;2.08;;
4986;SDS011;12674;51.500;7.552;2023-07-13T00:05:36;8.70;;;2.58;;
4986;SDS011;12674;51.500;7.552;2023-07-13T00:07:39;8.45;;;2.05;;
4986;SDS011;12674;51.500;7.552;2023-07-13T00:09:44;7.28;;;2.42;;
4986;SDS011;12674;51.500;7.552;2023-07-13T00:11:49;9.80;;;1.95;;
4986;SDS011;12674;51.500;7.552;2023-07-13T00:13:53;5.22;;;2.03;;
4986;SDS011;12674;51.500;7.552;2023-07-13T00:15:56;7.45;;;2.40;;
4986;SDS011;12674;51.500;7.552;2023-07-13T00:17:59;10.88;;;2.78;;
4986;SDS011;12674;51.500;7.552;2023-07-13T00:20:03;7.70;;;2.42;;
4986;SDS011;12674;51.500;7.552;2023-07-13T00:22:07;8.20;;;2.00;;
4986;SDS011;12674;51.500;7.552;2023-07-13T00:24:11;8.13;;;2.33;;
4986;SDS011;12674;51.500;7.552;2023-07-13T00:26:16;7.50;;;2.22;;
4986;SDS011;12674;51.500;7.552;2023-07-13T00:28:19;11.98;;;2.75;;
4986;SDS011;12674;51.500;7.552;2023-07-13T00:30:23;7.15;;;2.20;;
4986;SDS011;12674;51.500;7.552;2023-07-13T00:32:27;9.77;;;3.15;;
4986;SDS011;12674;51.500;7.552;2023-07-13T00:34:31;17.67;;;2.47;;
4986;SDS011;12674;51.500;7.552;2023-07-13T00:36:33;6.47;;;2.08;;
4986;SDS011;12674;51.500;7.552;2023-07-13T00:38:36;12.02;;;2.10;;
4986;SDS011;12674;51.500;7.552;2023-07-13T00:40:42;6.95;;;2.25;;
4986;SDS011;12674;51.500;7.552;2023-07-13T00:42:46;11.40;;;2.17;;
4986;SDS011;12674;51.500;7.552;2023-07-13T00:45:03;7.10;;;2.90;;
4986;SDS011;12674;51.500;7.552;2023-07-13T00:47:07;8.45;;;2.20;;
4986;SDS011;12674;51.500;7.552;2023-07-13T00:49:11;10.90;;;2.15;;
4986;SDS011;12674;51.500;7.552;2023-07-13T00:51:24;8.52;;;1.98;;
4986;SDS011;12674;51.500;7.552;2023-07-13T00:53:29;6.82;;;2.08;;
4986;SDS011;12674;51.500;7.552;2023-07-13T00:55:33;15.80;;;2.40;;
4986;SDS011;12674;51.500;7.552;2023-07-13T00:57:37;9.05;;;2.20;;
4986;SDS011;12674;51.500;7.552;2023-07-13T00:59:43;11.35;;;6.00;;
4986;SDS011;12674;51.500;7.552;2023-07-13T01:01:49;13.70;;;5.78;;
4986;SDS011;12674;51.500;7.552;2023-07-13T01:03:51;13.38;;;3.72;;
4986;SDS011;12674;51.500;7.552;2023-07-13T01:05:55;7.25;;;3.25;;
4986;SDS011;12674;51.500;7.552;2023-07-13T01:07:59;14.27;;;3.90;;
4986;SDS011;12674;51.500;7.552;2023-07-13T01:10:04;6.05;;;2.50;;
4986;SDS011;12674;51.500;7.552;2023-07-13T01:12:08;9.73;;;2.90;;
4986;SDS011;12674;51.500;7.552;2023-07-13T01:14:11;9.60;;;2.30;;
4986;SDS011;12674;51.500;7.552;2023-07-13T01:16:19;8.40;;;2.40;;
4986;SDS011;12674;51.500;7.552;2023-07-13T01:18:28;11.95;;;3.72;;
4986;SDS011;12674;51.500;7.552;2023-07-13T01:20:31;13.63;;;3.00;;
4986;SDS011;12674;51.500;7.552;2023-07-13T01:22:39;6.60;;;2.47;;
4986;SDS011;12674;51.500;7.552;2023-07-13T01:24:43;16.13;;;3.15;;
4986;SDS011;12674;51.500;7.552;2023-07-13T01:26:49;17.75;;;2.80;;
4986;SDS011;12674;51.500;7.552;2023-07-13T01:28:52;8.68;;;2.72;;
4986;SDS011;12674;51.500;7.552;2023-07-13T01:30:58;7.70;;;2.58;;
4986;SDS011;12674;51.500;7.552;2023-07-13T01:33:03;7.50;;;2.33;;
4986;SDS011;12674;51.500;7.552;2023-07-13T01:35:07;9.02;;;2.20;;
4986;SDS011;12674;51.500;7.552;2023-07-13T01:37:12;5.70;;;2.08;;
4986;SDS011;12674;51.500;7.552;2023-07-13T01:39:16;8.77;;;1.95;;
4986;SDS011;12674;51.500;7.552;2023-07-13T01:41:19;9.38;;;1.80;;
4986;SDS011;12674;51.500;7.552;2023-07-13T01:43:22;7.05;;;2.40;;
4986;SDS011;12674;51.500;7.552;2023-07-13T01:45:25;7.65;;;1.85;;
4986;SDS011;12674;51.500;7.552;2023-07-13T01:47:28;8.30;;;1.80;;
4986;SDS011;12674;51.500;7.552;2023-07-13T01:49:32;7.25;;;2.40;;
4986;SDS011;12674;51.500;7.552;2023-07-13T01:51:36;9.20;;;2.05;;
4986;SDS011;12674;51.500;7.552;2023-07-13T01:53:39;7.45;;;2.85;;
4986;SDS011;12674;51.500;7.552;2023-07-13T01:55:43;20.23;;;5.93;;
4986;SDS011;12674;51.500;7.552;2023-07-13T01:57:46;16.48;;;8.75;;
4986;SDS011;12674;51.500;7.552;2023-07-13T01:59:50;15.55;;;5.45;;
4986;SDS011;12674;51.500;7.552;2023-07-13T02:01:52;15.23;;;5.25;;
4986;SDS011;12674;51.500;7.552;2023-07-13T02:03:55;9.35;;;3.90;;
4986;SDS011;12674;51.500;7.552;2023-07-13T02:05:58;7.05;;;2.90;;
4986;SDS011;12674;51.500;7.552;2023-07-13T02:08:01;7.85;;;2.40;;
4986;SDS011;12674;51.500;7.552;2023-07-13T02:10:05;9.70;;;2.88;;
4986;SDS011;12674;51.500;7.552;2023-07-13T02:12:11;5.72;;;2.28;;
4986;SDS011;12674;51.500;7.552;2023-07-13T02:14:14;5.93;;;1.88;;
4986;SDS011;12674;51.500;7.552;2023-07-13T02:16:17;11.68;;;1.88;;
4986;SDS011;12674;51.500;7.552;2023-07-13T02:18:20;8.60;;;1.90;;
4986;SDS011;12674;51.500;7.552;2023-07-13T02:20:22;6.68;;;1.92;;
4986;SDS011;12674;51.500;7.552;2023-07-13T02:22:25;12.25;;;3.10;;
4986;SDS011;12674;51.500;7.552;2023-07-13T02:24:28;8.27;;;1.60;;
4986;SDS011;12674;51.500;7.552;2023-07-13T02:26:31;6.63;;;1.63;;
4986;SDS011;12674;51.500;7.552;2023-07-13T02:28:35;6.40;;;1.58;;
4986;SDS011;12674;51.500;7.552;2023-07-13T02:30:38;5.45;;;1.60;;
4986;SDS011;12674;51.500;7.552;2023-07-13T02:32:41;11.13;;;2.20;;
4986;SDS011;12674;51.500;7.552;2023-07-13T02:34:45;6.70;;;2.13;;
4986;SDS011;12674;51.500;7.552;2023-07-13T02:36:48;12.80;;;1.67;;
4986;SDS011;12674;51.500;7.552;2023-07-13T02:38:51;6.05;;;1.90;;
4986;SDS011;12674;51.500;7.552;2023-07-13T02:40:55;5.80;;;1.70;;
4986;SDS011;12674;51.500;7.552;2023-07-13T02:42:58;12.48;;;2.00;;
4986;SDS011;12674;51.500;7.552;2023-07-13T02:45:03;6.88;;;1.90;;
4986;SDS011;12674;51.500;7.552;2023-07-13T02:47:06;6.43;;;1.92;;
4986;SDS011;12674;51.500;7.552;2023-07-13T02:49:10;10.27;;;2.53;;
4986;SDS011;12674;51.500;7.552;2023-07-13T02:51:13;5.30;;;1.80;;
4986;SDS011;12674;51.500;7.552;2023-07-13T02:53:16;8.63;;;2.13;;
4986;SDS011;12674;51.500;7.552;2023-07-13T02:55:20;4.40;;;1.88;;
4986;SDS011;12674;51.500;7.552;2023-07-13T02:57:23;11.98;;;2.13;;
4986;SDS011;12674;51.500;7.552;2023-07-13T02:59:27;7.82;;;1.75;;
4986;SDS011;12674;51.500;7.552;2023-07-13T03:01:31;8.25;;;2.20;;
4986;SDS011;12674;51.500;7.552;2023-07-13T03:03:37;8.88;;;2.75;;
4986;SDS011;12674;51.500;7.552;2023-07-13T03:05:41;14.15;;;2.17;;
4986;SDS011;12674;51.500;7.552;2023-07-13T03:07:47;10.98;;;2.53;;
4986;SDS011;12674;51.500;7.552;2023-07-13T03:09:53;9.60;;;2.28;;
4986;SDS011;12674;51.500;7.552;2023-07-13T03:11:58;10.05;;;2.22;;
4986;SDS011;12674;51.500;7.552;2023-07-13T03:14:04;5.43;;;2.42;;
4986;SDS011;12674;51.500;7.552;2023-07-13T03:16:10;8.40;;;2.60;;
4986;SDS011;12674;51.500;7.552;2023-07-13T03:18:20;4.82;;;2.05;;
4986;SDS011;12674;51.500;7.552;2023-07-13T03:20:24;5.57;;;2.13;;
4986;SDS011;12674;51.500;7.552;2023-07-13T03:22:26;9.80;;;1.90;;
4986;SDS011;12674;51.500;7.552;2023-07-13T03:24:29;5.65;;;1.67;;
4986;SDS011;12674;51.500;7.552;2023-07-13T03:26:32;7.28;;;2.70;;
4986;SDS011;12674;51.500;7.552;2023-07-13T03:28:36;12.25;;;4.03;;
4986;SDS011;12674;51.500;7.552;2023-07-13T03:30:39;6.28;;;3.33;;
4986;SDS011;12674;51.500;7.552;2023-07-13T03:32:42;10.35;;;3.00;;
4986;SDS011;12674;51.500;7.552;2023-07-13T03:34:47;3.63;;;1.98;;
4986;SDS011;12674;51.500;7.552;2023-07-13T03:36:53;9.30;;;1.92;;
4986;SDS011;12674;51.500;7.552;2023-07-13T03:38:57;14.50;;;2.20;;
4986;SDS011;12674;51.500;7.552;2023-07-13T03:41:22;12.85;;;1.83;;
4986;SDS011;12674;51.500;7.552;2023-07-13T03:43:27;12.32;;;2.15;;
4986;SDS011;12674;51.500;7.552;2023-07-13T03:45:31;6.43;;;1.52;;
4986;SDS011;12674;51.500;7.552;2023-07-13T03:47:35;8.63;;;2.10;;
4986;SDS011;12674;51.500;7.552;2023-07-13T03:49:38;5.03;;;1.77;;
4986;SDS011;12674;51.500;7.552;2023-07-13T03:51:43;7.25;;;2.05;;
4986;SDS011;12674;51.500;7.552;2023-07-13T03:53:47;8.07;;;2.28;;
4986;SDS011;12674;51.500;7.552;2023-07-13T03:55:52;6.07;;;2.10;;
4986;SDS011;12674;51.500;7.552;2023-07-13T03:57:58;9.23;;;1.90;;
4986;SDS011;12674;51.500;7.552;2023-07-13T04:00:02;20.00;;;2.22;;
4986;SDS011;12674;51.500;7.552;2023-07-13T04:02:16;9.73;;;1.55;;
4986;SDS011;12674;51.500;7.552;2023-07-13T04:04:19;8.63;;;1.60;;
4986;SDS011;12674;51.500;7.552;2023-07-13T04:06:23;3.80;;;1.55;;
4986;SDS011;12674;51.500;7.552;2023-07-13T04:08:30;6.82;;;1.65;;
4986;SDS011;12674;51.500;7.552;2023-07-13T04:10:34;13.65;;;2.67;;
4986;SDS011;12674;51.500;7.552;2023-07-13T04:12:40;7.93;;;1.90;;
4986;SDS011;12674;51.500;7.552;2023-07-13T04:14:43;3.22;;;1.40;;
4986;SDS011;12674;51.500;7.552;2023-07-13T04:16:46;5.40;;;1.58;;
4986;SDS011;12674;51.500;7.552;2023-07-13T04:18:50;3.13;;;1.50;;
4986;SDS011;12674;51.500;7.552;2023-07-13T04:20:57;11.90;;;2.80;;
4986;SDS011;12674;51.500;7.552;2023-07-13T04:23:00;10.50;;;2.03;;
4986;SDS011;12674;51.500;7.552;2023-07-13T04:25:05;7.63;;;2.00;;
4986;SDS011;12674;51.500;7.552;2023-07-13T04:27:09;8.45;;;2.47;;
4986;SDS011;12674;51.500;7.552;2023-07-13T04:29:12;9.88;;;1.60;;
4986;SDS011;12674;51.500;7.552;2023-07-13T04:31:15;5.25;;;1.52;;
4986;SDS011;12674;51.500;7.552;2023-07-13T04:33:18;13.13;;;2.17;;
4986;SDS011;12674;51.500;7.552;2023-07-13T04:35:24;4.50;;;1.67;;
4986;SDS011;12674;51.500;7.552;2023-07-13T04:37:27;6.13;;;1.88;;
4986;SDS011;12674;51.500;7.552;2023-07-13T04:39:31;5.30;;;1.77;;
4986;SDS011;12674;51.500;7.552;2023-07-13T04:41:37;10.32;;;2.45;;
4986;SDS011;12674;51.500;7.552;2023-07-13T04:43:40;10.10;;;2.30;;
4986;SDS011;12674;51.500;7.552;2023-07-13T04:45:45;8.48;;;1.80;;
4986;SDS011;12674;51.500;7.552;2023-07-13T04:47:48;13.13;;;1.83;;
4986;SDS011;12674;51.500;7.552;2023-07-13T04:49:51;8.10;;;1.70;;
4986;SDS011;12674;51.500;7.552;2023-07-13T04:51:54;10.82;;;2.35;;
4986;SDS011;12674;51.500;7.552;2023-07-13T04:53:57;4.78;;;1.58;;
4986;SDS011;12674;51.500;7.552;2023-07-13T04:56:03;6.95;;;1.92;;
4986;SDS011;12674;51.500;7.552;2023-07-13T04:58:08;7.82;;;1.90;;
4986;SDS011;12674;51.500;7.552;2023-07-13T05:00:11;6.82;;;1.60;;
4986;SDS011;12674;51.500;7.552;2023-07-13T05:02:17;6.97;;;2.15;;
4986;SDS011;12674;51.500;7.552;2023-07-13T05:04:22;4.47;;;1.75;;
4986;SDS011;12674;51.500;7.552;2023-07-13T05:06:25;5.68;;;1.75;;
4986;SDS011;12674;51.500;7.552;2023-07-13T05:08:28;5.90;;;1.95;;
4986;SDS011;12674;51.500;7.552;2023-07-13T05:10:31;5.00;;;1.88;;
4986;SDS011;12674;51.500;7.552;2023-07-13T05:12:34;5.32;;;1.80;;
4986;SDS011;12674;51.500;7.552;2023-07-13T05:14:39;8.38;;;2.13;;
4986;SDS011;12674;51.500;7.552;2023-07-13T05:16:42;3.55;;;1.60;;
4986;SDS011;12674;51.500;7.552;2023-07-13T05:18:45;13.60;;;1.70;;
4986;SDS011;12674;51.500;7.552;2023-07-13T05:20:54;12.35;;;1.83;;
4986;SDS011;12674;51.500;7.552;2023-07-13T05:22:58;8.10;;;2.35;;
4986;SDS011;12674;51.500;7.552;2023-07-13T05:25:01;9.60;;;2.00;;
4986;SDS011;12674;51.500;7.552;2023-07-13T05:27:05;6.15;;;1.70;;
4986;SDS011;12674;51.500;7.552;2023-07-13T05:29:07;9.63;;;1.80;;
4986;SDS011;12674;51.500;7.552;2023-07-13T05:31:11;7.82;;;1.67;;
4986;SDS011;12674;51.500;7.552;2023-07-13T05:33:17;13.60;;;2.50;;
4986;SDS011;12674;51.500;7.552;2023-07-13T05:35:20;7.30;;;2.42;;
4986;SDS011;12674;51.500;7.552;2023-07-13T05:37:23;12.48;;;2.30;;
4986;SDS011;12674;51.500;7.552;2023-07-13T05:39:26;9.02;;;2.47;;
4986;SDS011;12674;51.500;7.552;2023-07-13T05:41:30;8.90;;;2.63;;
4986;SDS011;12674;51.500;7.552;2023-07-13T05:43:33;7.35;;;2.15;;
4986;SDS011;12674;51.500;7.552;2023-07-13T05:45:36;18.02;;;3.15;;
4986;SDS011;12674;51.500;7.552;2023-07-13T05:47:44;11.20;;;2.15;;
4986;SDS011;12674;51.500;7.552;2023-07-13T05:49:47;8.32;;;2.33;;
4986;SDS011;12674;51.500;7.552;2023-07-13T05:51:50;5.43;;;2.03;;
4986;SDS011;12674;51.500;7.552;2023-07-13T05:53:53;12.15;;;3.08;;
4986;SDS011;12674;51.500;7.552;2023-07-13T05:55:56;13.80;;;2.25;;
4986;SDS011;12674;51.500;7.552;2023-07-13T05:58:03;10.50;;;2.47;;
4986;SDS011;12674;51.500;7.552;2023-07-13T06:00:06;10.27;;;2.78;;
4986;SDS011;12674;51.500;7.552;2023-07-13T06:02:13;10.18;;;2.85;;
4986;SDS011;12674;51.500;7.552;2023-07-13T06:04:18;9.27;;;2.58;;
4986;SDS011;12674;51.500;7.552;2023-07-13T06:06:21;13.98;;;2.45;;
4986;SDS011;12674;51.500;7.552;2023-07-13T06:08:24;7.32;;;2.60;;
4986;SDS011;12674;51.500;7.552;2023-07-13T06:10:27;13.77;;;3.08;;
4986;SDS011;12674;51.500;7.552;2023-07-13T06:12:31;11.35;;;3.05;;
4986;SDS011;12674;51.500;7.552;2023-07-13T06:14:34;11.52;;;2.95;;
4986;SDS011;12674;51.500;7.552;2023-07-13T06:16:37;13.00;;;2.65;;
4986;SDS011;12674;51.500;7.552;2023-07-13T06:18:40;7.00;;;2.70;;
4986;SDS011;12674;51.500;7.552;2023-07-13T06:20:43;8.30;;;3.20;;
4986;SDS011;12674;51.500;7.552;2023-07-13T06:22:46;6.18;;;2.13;;
4986;SDS011;12674;51.500;7.552;2023-07-13T06:24:49;15.15;;;2.60;;
4986;SDS011;12674;51.500;7.552;2023-07-13T06:26:53;14.82;;;3.10;;
4986;SDS011;12674;51.500;7.552;2023-07-13T06:28:56;11.65;;;2.53;;
4986;SDS011;12674;51.500;7.552;2023-07-13T06:30:59;9.52;;;2.65;;
4986;SDS011;12674;51.500;7.552;2023-07-13T06:33:02;10.35;;;2.92;;
4986;SDS011;12674;51.500;7.552;2023-07-13T06:35:06;11.15;;;2.92;;
4986;SDS011;12674;51.500;7.552;2023-07-13T06:37:11;14.45;;;3.40;;
4986;SDS011;12674;51.500;7.552;2023-07-13T06:39:14;6.25;;;2.38;;
4986;SDS011;12674;51.500;7.552;2023-07-13T06:41:17;10.65;;;2.67;;
4986;SDS011;12674;51.500;7.552;2023-07-13T06:43:20;10.73;;;4.18;;
4986;SDS011;12674;51.500;7.552;2023-07-13T06:45:22;16.50;;;2.85;;
4986;SDS011;12674;51.500;7.552;2023-07-13T06:47:25;11.00;;;3.58;;
4986;SDS011;12674;51.500;7.552;2023-07-13T06:49:28;11.55;;;3.95;;
4986;SDS011;12674;51.500;7.552;2023-07-13T06:51:31;10.80;;;3.53;;
4986;SDS011;12674;51.500;7.552;2023-07-13T06:53:35;17.98;;;3.63;;
4986;SDS011;12674;51.500;7.552;2023-07-13T06:55:39;15.52;;;3.30;;
4986;SDS011;12674;51.500;7.552;2023-07-13T06:57:41;13.40;;;2.80;;
4986;SDS011;12674;51.500;7.552;2023-07-13T06:59:44;13.50;;;3.28;;
4986;SDS011;12674;51.500;7.552;2023-07-13T07:01:47;24.45;;;4.97;;
4986;SDS011;12674;51.500;7.552;2023-07-13T07:03:50;25.23;;;4.80;;
4986;SDS011;12674;51.500;7.552;2023-07-13T07:05:54;20.23;;;4.50;;
4986;SDS011;12674;51.500;7.552;2023-07-13T07:07:57;11.60;;;2.70;;
4986;SDS011;12674;51.500;7.552;2023-07-13T07:10:01;9.25;;;3.00;;
4986;SDS011;12674;51.500;7.552;2023-07-13T07:12:06;14.68;;;3.38;;
4986;SDS011;12674;51.500;7.552;2023-07-13T07:14:09;15.52;;;3.03;;
4986;SDS011;12674;51.500;7.552;2023-07-13T07:16:13;14.98;;;4.15;;
4986;SDS011;12674;51.500;7.552;2023-07-13T07:18:16;16.45;;;2.97;;
4986;SDS011;12674;51.500;7.552;2023-07-13T07:20:19;8.07;;;2.83;;
4986;SDS011;12674;51.500;7.552;2023-07-13T07:22:22;12.95;;;3.15;;
4986;SDS011;12674;51.500;7.552;2023-07-13T07:24:28;12.65;;;2.72;;
4986;SDS011;12674;51.500;7.552;2023-07-13T07:26:33;15.90;;;3.38;;
4986;SDS011;12674;51.500;7.552;2023-07-13T07:28:56;13.18;;;2.60;;
4986;SDS011;12674;51.500;7.552;2023-07-13T07:31:02;14.32;;;3.33;;
4986;SDS011;12674;51.500;7.552;2023-07-13T07:33:08;7.30;;;2.88;;
4986;SDS011;12674;51.500;7.552;2023-07-13T07:35:11;7.63;;;2.47;;
4986;SDS011;12674;51.500;7.552;2023-07-13T07:37:14;13.05;;;3.42;;
4986;SDS011;12674;51.500;7.552;2023-07-13T07:39:20;7.40;;;2.53;;
4986;SDS011;12674;51.500;7.552;2023-07-13T07:41:23;10.02;;;2.67;;
4986;SDS011;12674;51.500;7.552;2023-07-13T07:43:31;11.73;;;3.40;;
4986;SDS011;12674;51.500;7.552;2023-07-13T07:45:33;10.77;;;2.85;;
4986;SDS011;12674;51.500;7.552;2023-07-13T07:47:36;9.10;;;2.85;;
4986;SDS011;12674;51.500;7.552;2023-07-13T07:49:40;11.75;;;3.50;;
4986;SDS011;12674;51.500;7.552;2023-07-13T07:51:43;9.73;;;3.08;;
4986;SDS011;12674;51.500;7.552;2023-07-13T07:53:46;9.93;;;3.10;;
4986;SDS011;12674;51.500;7.552;2023-07-13T07:55:50;15.75;;;3.03;;
4986;SDS011;12674;51.500;7.552;2023-07-13T07:57:56;10.10;;;2.55;;
4986;SDS011;12674;51.500;7.552;2023-07-13T08:00:04;21.13;;;3.97;;
4986;SDS011;12674;51.500;7.552;2023-07-13T08:02:17;13.80;;;3.20;;
4986;SDS011;12674;51.500;7.552;2023-07-13T08:04:23;9.88;;;2.90;;
4986;SDS011;12674;51.500;7.552;2023-07-13T08:06:29;7.50;;;2.50;;
4986;SDS011;12674;51.500;7.552;2023-07-13T08:08:45;6.13;;;2.10;;
4986;SDS011;12674;51.500;7.552;2023-07-13T08:10:48;8.23;;;2.50;;
4986;SDS011;12674;51.500;7.552;2023-07-13T08:12:52;14.63;;;2.13;;
4986;SDS011;12674;51.500;7.552;2023-07-13T08:14:57;11.73;;;2.70;;
4986;SDS011;12674;51.500;7.552;2023-07-13T08:17:04;8.43;;;1.95;;
4986;SDS011;12674;51.500;7.552;2023-07-13T08:19:07;9.40;;;1.77;;
4986;SDS011;12674;51.500;7.552;2023-07-13T08:21:10;16.33;;;3.40;;
4986;SDS011;12674;51.500;7.552;2023-07-13T08:23:12;9.75;;;3.20;;
4986;SDS011;12674;51.500;7.552;2023-07-13T08:25:15;11.38;;;3.00;;
4986;SDS011;12674;51.500;7.552;2023-07-13T08:27:18;6.88;;;2.30;;
4986;SDS011;12674;51.500;7.552;2023-07-13T08:29:21;8.95;;;2.47;;
4986;SDS011;12674;51.500;7.552;2023-07-13T08:31:25;12.35;;;2.92;;
4986;SDS011;12674;51.500;7.552;2023-07-13T08:33:30;13.07;;;2.50;;
4986;SDS011;12674;51.500;7.552;2023-07-13T08:35:33;16.52;;;2.83;;
4986;SDS011;12674;51.500;7.552;2023-07-13T08:37:36;17.33;;;2.90;;
4986;SDS011;12674;51.500;7.552;2023-07-13T08:39:39;13.75;;;2.88;;
4986;SDS011;12674;51.500;7.552;2023-07-13T08:41:42;11.98;;;2.67;;
4986;SDS011;12674;51.500;7.552;2023-07-13T08:43:47;16.35;;;2.60;;
4986;SDS011;12674;51.500;7.552;2023-07-13T08:45:54;14.73;;;3.28;;
4986;SDS011;12674;51.500;7.552;2023-07-13T08:48:01;6.35;;;2.13;;
4986;SDS011;12674;51.500;7.552;2023-07-13T08:50:08;8.43;;;2.13;;
4986;SDS011;12674;51.500;7.552;2023-07-13T08:52:15;9.57;;;2.15;;
4986;SDS011;12674;51.500;7.552;2023-07-13T08:54:23;11.45;;;2.90;;
4986;SDS011;12674;51.500;7.552;2023-07-13T08:56:32;7.30;;;2.10;;
4986;SDS011;12674;51.500;7.552;2023-07-13T08:58:35;11.10;;;2.40;;
4986;SDS011;12674;51.500;7.552;2023-07-13T09:00:42;11.80;;;2.63;;
4986;SDS011;12674;51.500;7.552;2023-07-13T09:02:52;8.25;;;2.42;;
4986;SDS011;12674;51.500;7.552;2023-07-13T09:05:00;9.35;;;2.80;;
4986;SDS011;12674;51.500;7.552;2023-07-13T09:07:11;5.45;;;1.90;;
4986;SDS011;12674;51.500;7.552;2023-07-13T09:09:20;10.90;;;2.28;;
4986;SDS011;12674;51.500;7.552;2023-07-13T09:11:36;14.57;;;2.75;;
4986;SDS011;12674;51.500;7.552;2023-07-13T09:13:48;12.43;;;2.75;;
4986;SDS011;12674;51.500;7.552;2023-07-13T09:15:56;8.05;;;2.63;;
4986;SDS011;12674;51.500;7.552;2023-07-13T09:18:03;6.65;;;2.10;;
4986;SDS011;12674;51.500;7.552;2023-07-13T09:20:09;5.25;;;2.63;;
4986;SDS011;12674;51.500;7.552;2023-07-13T09:22:15;15.30;;;2.42;;
4986;SDS011;12674;51.500;7.552;2023-07-13T09:24:26;17.27;;;3.08;;
4986;SDS011;12674;51.500;7.552;2023-07-13T09:26:31;5.90;;;2.42;;
4986;SDS011;12674;51.500;7.552;2023-07-13T09:28:37;12.88;;;2.47;;
4986;SDS011;12674;51.500;7.552;2023-07-13T09:30:45;9.05;;;2.20;;
4986;SDS011;12674;51.500;7.552;2023-07-13T09:32:53;11.20;;;3.05;;
4986;SDS011;12674;51.500;7.552;2023-07-13T09:34:56;8.88;;;2.83;;
4986;SDS011;12674;51.500;7.552;2023-07-13T09:36:59;10.32;;;2.22;;
4986;SDS011;12674;51.500;7.552;2023-07-13T09:39:04;4.88;;;1.88;;
4986;SDS011;12674;51.500;7.552;2023-07-13T09:41:15;10.60;;;2.40;;
4986;SDS011;12674;51.500;7.552;2023-07-13T09:43:22;7.28;;;2.95;;
4986;SDS011;12674;51.500;7.552;2023-07-13T09:45:26;9.05;;;2.58;;
4986;SDS011;12674;51.500;7.552;2023-07-13T09:47:30;16.77;;;2.88;;
4986;SDS011;12674;51.500;7.552;2023-07-13T09:49:35;12.77;;;2.33;;
4986;SDS011;12674;51.500;7.552;2023-07-13T09:51:40;13.35;;;2.83;;
4986;SDS011;12674;51.500;7.552;2023-07-13T09:53:44;8.32;;;2.22;;
4986;SDS011;12674;51.500;7.552;2023-07-13T09:55:49;7.53;;;2.70;;
4986;SDS011;12674;51.500;7.552;2023-07-13T09:57:54;8.55;;;2.50;;
4986;SDS011;12674;51.500;7.552;2023-07-13T09:59:57;11.35;;;2.95;;
4986;SDS011;12674;51.500;7.552;2023-07-13T10:02:00;7.43;;;2.35;;
4986;SDS011;12674;51.500;7.552;2023-07-13T10:04:10;8.40;;;1.88;;
4986;SDS011;12674;51.500;7.552;2023-07-13T10:06:16;7.22;;;2.20;;
4986;SDS011;12674;51.500;7.552;2023-07-13T10:08:21;11.77;;;2.25;;
4986;SDS011;12674;51.500;7.552;2023-07-13T10:10:26;9.23;;;2.50;;
4986;SDS011;12674;51.500;7.552;2023-07-13T10:12:35;6.78;;;2.08;;
4986;SDS011;12674;51.500;7.552;2023-07-13T10:14:41;8.80;;;2.53;;
4986;SDS011;12674;51.500;7.552;2023-07-13T10:16:45;6.40;;;2.20;;
4986;SDS011;12674;51.500;7.552;2023-07-13T10:18:49;6.65;;;2.38;;
4986;SDS011;12674;51.500;7.552;2023-07-13T10:20:54;3.70;;;1.95;;
4986;SDS011;12674;51.500;7.552;2023-07-13T10:23:23;10.90;;;2.28;;
4986;SDS011;12674;51.500;7.552;2023-07-13T10:25:29;8.60;;;2.28;;
4986;SDS011;12674;51.500;7.552;2023-07-13T10:27:36;13.20;;;2.95;;
4986;SDS011;12674;51.500;7.552;2023-07-13T10:29:42;7.65;;;2.35;;
4986;SDS011;12674;51.500;7.552;2023-07-13T10:31:48;9.05;;;2.42;;
4986;SDS011;12674;51.500;7.552;2023-07-13T10:33:52;9.52;;;2.10;;
4986;SDS011;12674;51.500;7.552;2023-07-13T10:38:19;10.10;;;2.78;;
4986;SDS011;12674;51.500;7.552;2023-07-13T10:40:27;8.50;;;2.58;;
4986;SDS011;12674;51.500;7.552;2023-07-13T10:42:35;7.55;;;2.50;;
4986;SDS011;12674;51.500;7.552;2023-07-13T10:44:40;8.02;;;2.40;;
4986;SDS011;12674;51.500;7.552;2023-07-13T10:46:43;6.05;;;2.22;;
4986;SDS011;12674;51.500;7.552;2023-07-13T10:48:48;8.00;;;2.22;;
4986;SDS011;12674;51.500;7.552;2023-07-13T10:50:53;5.18;;;2.47;;
4986;SDS011;12674;51.500;7.552;2023-07-13T10:53:01;5.28;;;1.60;;
4986;SDS011;12674;51.500;7.552;2023-07-13T10:55:05;6.90;;;1.88;;
4986;SDS011;12674;51.500;7.552;2023-07-13T10:57:14;8.07;;;2.70;;
4986;SDS011;12674;51.500;7.552;2023-07-13T10:59:23;8.10;;;2.50;;
4986;SDS011;12674;51.500;7.552;2023-07-13T11:01:38;6.32;;;2.13;;
4986;SDS011;12674;51.500;7.552;2023-07-13T11:03:47;13.52;;;2.55;;
4986;SDS011;12674;51.500;7.552;2023-07-13T11:06:03;7.38;;;2.70;;
4986;SDS011;12674;51.500;7.552;2023-07-13T11:08:16;4.78;;;2.33;;
4986;SDS011;12674;51.500;7.552;2023-07-13T11:12:53;6.75;;;2.55;;
4986;SDS011;12674;51.500;7.552;2023-07-13T11:15:09;8.07;;;2.63;;
4986;SDS011;12674;51.500;7.552;2023-07-13T11:19:41;14.18;;;2.88;;
4986;SDS011;12674;51.500;7.552;2023-07-13T11:24:14;7.70;;;2.58;;
4986;SDS011;12674;51.500;7.552;2023-07-13T11:28:44;7.15;;;2.40;;
4986;SDS011;12674;51.500;7.552;2023-07-13T11:31:12;9.23;;;1.90;;
4986;SDS011;12674;51.500;7.552;2023-07-13T11:33:19;10.02;;;2.00;;
4986;SDS011;12674;51.500;7.552;2023-07-13T11:35:24;10.38;;;2.85;;
4986;SDS011;12674;51.500;7.552;2023-07-13T11:37:28;8.23;;;2.42;;
4986;SDS011;12674;51.500;7.552;2023-07-13T11:39:34;8.27;;;2.47;;
4986;SDS011;12674;51.500;7.552;2023-07-13T11:41:49;6.88;;;2.13;;
4986;SDS011;12674;51.500;7.552;2023-07-13T11:43:54;12.57;;;2.38;;
4986;SDS011;12674;51.500;7.552;2023-07-13T11:45:58;7.50;;;2.10;;
4986;SDS011;12674;51.500;7.552;2023-07-13T11:48:03;8.52;;;2.38;;
4986;SDS011;12674;51.500;7.552;2023-07-13T11:50:16;7.97;;;2.58;;
4986;SDS011;12674;51.500;7.552;2023-07-13T11:52:21;7.22;;;2.88;;
4986;SDS011;12674;51.500;7.552;2023-07-13T11:54:29;9.25;;;2.22;;
4986;SDS011;12674;51.500;7.552;2023-07-13T11:56:33;4.53;;;1.70;;
4986;SDS011;12674;51.500;7.552;2023-07-13T11:58:36;4.32;;;2.05;;
4986;SDS011;12674;51.500;7.552;2023-07-13T12:00:39;5.70;;;2.22;;
4986;SDS011;12674;51.500;7.552;2023-07-13T12:02:43;5.28;;;1.73;;
4986;SDS011;12674;51.500;7.552;2023-07-13T12:04:49;8.30;;;2.13;;
4986;SDS011;12674;51.500;7.552;2023-07-13T12:06:57;11.20;;;1.88;;
4986;SDS011;12674;51.500;7.552;2023-07-13T12:09:02;7.50;;;2.22;;
4986;SDS011;12674;51.500;7.552;2023-07-13T12:11:11;4.70;;;1.80;;
4986;SDS011;12674;51.500;7.552;2023-07-13T12:13:17;8.77;;;2.42;;
4986;SDS011;12674;51.500;7.552;2023-07-13T12:15:21;6.15;;;2.05;;
4986;SDS011;12674;51.500;7.552;2023-07-13T12:17:24;8.45;;;2.15;;
4986;SDS011;12674;51.500;7.552;2023-07-13T12:19:28;9.43;;;2.17;;
4986;SDS011;12674;51.500;7.552;2023-07-13T12:21:36;8.50;;;2.38;;
4986;SDS011;12674;51.500;7.552;2023-07-13T12:23:42;10.32;;;2.75;;
4986;SDS011;12674;51.500;7.552;2023-07-13T12:25:47;5.95;;;2.30;;
4986;SDS011;12674;51.500;7.552;2023-07-13T12:27:50;4.70;;;2.00;;
4986;SDS011;12674;51.500;7.552;2023-07-13T12:29:57;8.20;;;1.80;;
4986;SDS011;12674;51.500;7.552;2023-07-13T12:32:01;8.02;;;2.38;;
4986;SDS011;12674;51.500;7.552;2023-07-13T12:34:06;6.72;;;1.70;;
4986;SDS011;12674;51.500;7.552;2023-07-13T12:36:09;7.40;;;2.08;;
4986;SDS011;12674;51.500;7.552;2023-07-13T12:38:15;6.43;;;2.10;;
4986;SDS011;12674;51.500;7.552;2023-07-13T12:40:20;12.52;;;1.98;;
4986;SDS011;12674;51.500;7.552;2023-07-13T12:42:37;5.78;;;2.00;;
4986;SDS011;12674;51.500;7.552;2023-07-13T12:44:41;9.13;;;2.13;;
4986;SDS011;12674;51.500;7.552;2023-07-13T12:49:07;4.25;;;2.17;;
4986;SDS011;12674;51.500;7.552;2023-07-13T12:51:21;6.18;;;1.92;;
4986;SDS011;12674;51.500;7.552;2023-07-13T12:53:29;3.75;;;2.08;;
4986;SDS011;12674;51.500;7.552;2023-07-13T12:55:40;6.38;;;1.88;;